createdAt,value
2022-11-13T00:00:26.717Z,8.70
2022-11-13T00:03:15.502Z,8.70
2022-11-13T00:06:11.300Z,8.30
2022-11-13T00:09:00.912Z,8.12
2022-11-13T00:11:52.979Z,8.10
2022-11-13T00:14:42.519Z,7.74
2022-11-13T00:17:35.083Z,7.80
2022-11-13T00:20:25.735Z,8.30
2022-11-13T00:23:13.276Z,8.28
2022-11-13T00:26:15.712Z,8.75
2022-11-13T00:29:08.176Z,8.81
2022-11-13T00:31:57.371Z,8.87
2022-11-13T00:34:59.557Z,8.77
2022-11-13T00:38:00.255Z,8.75
2022-11-13T00:40:48.581Z,8.51
2022-11-13T00:43:38.564Z,8.47
2022-11-13T00:46:31.419Z,8.46
2022-11-13T00:49:21.478Z,8.46
2022-11-13T00:52:16.529Z,8.37
2022-11-13T00:55:13.726Z,8.42
2022-11-13T00:58:09.666Z,8.38
2022-11-13T01:01:07.432Z,8.19
2022-11-13T01:03:55.232Z,8.40
2022-11-13T01:06:46.864Z,8.37
2022-11-13T01:09:34.381Z,8.64
2022-11-13T01:12:23.523Z,8.61
2022-11-13T01:15:28.855Z,8.68
2022-11-13T01:18:18.814Z,8.74
2022-11-13T01:21:12.030Z,8.58
2022-11-13T01:24:01.810Z,8.58
2022-11-13T01:26:50.774Z,8.61
2022-11-13T01:29:42.914Z,8.55
2022-11-13T01:32:30.234Z,8.48
2022-11-13T01:35:19.161Z,8.23
2022-11-13T01:38:06.396Z,8.17
2022-11-13T01:40:58.033Z,7.77
2022-11-13T01:43:53.249Z,8.00
2022-11-13T01:46:43.813Z,7.98
2022-11-13T01:49:42.344Z,8.20
2022-11-13T01:52:46.244Z,8.31
2022-11-13T01:55:38.412Z,8.04
2022-11-13T01:58:34.211Z,7.71
2022-11-13T02:01:27.077Z,7.36
2022-11-13T02:04:22.284Z,6.82
2022-11-13T02:07:32.509Z,6.39
2022-11-13T02:10:21.776Z,6.79
2022-11-13T02:13:09.483Z,6.98
2022-11-13T02:15:58.617Z,7.02
2022-11-13T02:22:02.781Z,7.25
2022-11-13T02:24:54.611Z,7.06
2022-11-13T02:27:54.731Z,7.04
2022-11-13T02:30:44.449Z,7.00
2022-11-13T02:33:37.866Z,6.87
2022-11-13T02:36:31.008Z,6.66
2022-11-13T02:39:23.777Z,6.72
2022-11-13T02:42:11.600Z,6.77
2022-11-13T02:45:00.500Z,6.72
2022-11-13T02:47:56.050Z,6.62
2022-11-13T02:50:44.398Z,6.32
2022-11-13T02:53:33.907Z,6.17
2022-11-13T02:56:20.574Z,6.02
2022-11-13T02:59:13.306Z,5.74
2022-11-13T03:02:00.476Z,5.75
2022-11-13T03:05:11.493Z,5.43
2022-11-13T03:07:57.289Z,5.02
2022-11-13T03:10:46.410Z,5.19
2022-11-13T03:13:34.117Z,5.30
2022-11-13T03:16:33.968Z,5.28
2022-11-13T03:19:26.681Z,5.53
2022-11-13T03:22:16.490Z,5.53
2022-11-13T03:25:12.266Z,5.61
2022-11-13T03:28:01.764Z,5.51
2022-11-13T03:30:56.544Z,5.33
2022-11-13T03:33:43.731Z,5.35
2022-11-13T03:36:33.346Z,5.33
2022-11-13T03:39:28.175Z,5.23
2022-11-13T03:42:22.563Z,5.26
2022-11-13T03:45:14.400Z,5.03
2022-11-13T03:48:01.257Z,5.11
2022-11-13T03:50:53.442Z,5.38
2022-11-13T03:53:45.172Z,5.25
2022-11-13T03:56:37.195Z,4.94
2022-11-13T03:59:26.184Z,5.00
2022-11-13T04:02:19.713Z,5.05
2022-11-13T04:05:19.991Z,5.09
2022-11-13T04:08:16.336Z,5.06
2022-11-13T04:11:11.225Z,5.26
2022-11-13T04:14:07.457Z,5.16
2022-11-13T04:16:56.301Z,5.02
2022-11-13T04:19:46.310Z,4.98
2022-11-13T04:22:34.969Z,4.88
2022-11-13T04:25:45.484Z,4.87
2022-11-13T04:28:34.736Z,4.78
2022-11-13T04:31:29.838Z,4.86
2022-11-13T04:34:18.425Z,4.18
2022-11-13T04:37:08.886Z,4.13
2022-11-13T04:39:57.868Z,4.15
2022-11-13T04:42:52.614Z,4.25
2022-11-13T04:45:39.383Z,4.29
2022-11-13T04:48:29.169Z,4.50
2022-11-13T04:51:22.010Z,4.55
2022-11-13T04:54:17.363Z,4.65
2022-11-13T04:57:13.540Z,4.65
2022-11-13T05:00:17.288Z,4.44
2022-11-13T05:03:12.455Z,4.07
2022-11-13T05:06:19.645Z,4.10
2022-11-13T05:09:08.893Z,4.45
2022-11-13T05:12:01.585Z,4.51
2022-11-13T05:14:48.326Z,4.52
2022-11-13T05:17:35.932Z,4.45
2022-11-13T05:20:25.077Z,4.01
2022-11-13T05:23:26.197Z,4.31
2022-11-13T05:26:24.001Z,4.30
2022-11-13T05:29:16.101Z,4.30
2022-11-13T05:32:16.016Z,4.43
2022-11-13T05:35:04.610Z,4.55
2022-11-13T05:37:53.877Z,4.60
2022-11-13T05:40:43.860Z,4.64
2022-11-13T05:43:34.985Z,4.88
2022-11-13T05:46:38.156Z,4.27
2022-11-13T05:49:26.919Z,4.51
2022-11-13T05:52:29.561Z,4.71
2022-11-13T05:55:20.045Z,4.79
2022-11-13T05:58:12.907Z,4.71
2022-11-13T06:01:23.071Z,4.63
2022-11-13T06:04:11.754Z,4.72
2022-11-13T06:07:04.719Z,5.02
2022-11-13T06:10:05.483Z,4.99
2022-11-13T06:12:56.185Z,5.04
2022-11-13T06:15:49.989Z,5.00
2022-11-13T06:18:39.258Z,5.03
2022-11-13T06:21:32.204Z,5.33
2022-11-13T06:24:36.634Z,5.27
2022-11-13T06:27:26.203Z,5.25
2022-11-13T06:30:24.089Z,5.36
2022-11-13T06:33:18.379Z,5.52
2022-11-13T06:36:17.917Z,5.58
2022-11-13T06:39:09.715Z,5.50
2022-11-13T06:42:06.008Z,5.54
2022-11-13T06:45:02.312Z,5.58
2022-11-13T06:48:03.557Z,5.35
2022-11-13T06:50:51.385Z,5.37
2022-11-13T06:53:43.664Z,5.28
2022-11-13T06:56:46.852Z,5.30
2022-11-13T06:59:42.911Z,5.62
2022-11-13T07:02:32.121Z,5.81
2022-11-13T07:05:25.345Z,5.87
2022-11-13T07:08:20.941Z,5.90
2022-11-13T07:11:11.036Z,5.74
2022-11-13T07:14:05.631Z,5.83
2022-11-13T07:17:10.375Z,5.78
2022-11-13T07:20:05.675Z,5.72
2022-11-13T07:22:56.405Z,5.94
2022-11-13T07:25:48.646Z,5.97
2022-11-13T07:28:40.474Z,6.17
2022-11-13T07:31:39.855Z,6.33
2022-11-13T07:34:28.968Z,6.63
2022-11-13T07:37:15.378Z,6.78
2022-11-13T07:40:09.477Z,6.82
2022-11-13T07:43:11.676Z,6.91
2022-11-13T07:46:06.019Z,7.04
2022-11-13T07:48:52.543Z,6.83
2022-11-13T07:51:48.100Z,6.96
2022-11-13T07:54:40.563Z,7.22
2022-11-13T07:57:33.010Z,7.20
2022-11-13T08:00:24.125Z,7.11
2022-11-13T08:03:23.674Z,7.09
2022-11-13T08:06:12.874Z,7.38
2022-11-13T08:09:00.428Z,7.53
2022-11-13T08:12:02.677Z,7.41
2022-11-13T08:14:57.446Z,7.77
2022-11-13T08:17:53.028Z,7.78
2022-11-13T08:20:41.339Z,7.60
2022-11-13T08:23:32.292Z,7.79
2022-11-13T08:26:28.647Z,7.71
2022-11-13T08:29:17.967Z,7.89
2022-11-13T08:32:08.170Z,7.96
2022-11-13T08:34:55.281Z,8.00
2022-11-13T08:37:47.863Z,8.24
2022-11-13T08:40:44.330Z,8.21
2022-11-13T08:43:34.211Z,8.28
2022-11-13T08:46:23.518Z,8.11
2022-11-13T08:49:13.067Z,8.30
2022-11-13T08:52:00.646Z,8.42
2022-11-13T08:54:49.717Z,8.59
2022-11-13T08:57:36.416Z,8.80
2022-11-13T09:00:32.873Z,8.79
2022-11-13T09:03:27.284Z,8.82
2022-11-13T09:06:17.490Z,8.76
2022-11-13T09:09:09.222Z,8.86
2022-11-13T09:11:55.430Z,8.58
2022-11-13T09:15:00.083Z,8.64
2022-11-13T09:17:52.995Z,8.88
2022-11-13T09:20:44.317Z,8.81
2022-11-13T09:23:40.085Z,8.92
2022-11-13T09:26:30.445Z,9.00
2022-11-13T09:29:24.103Z,9.10
2022-11-13T09:32:11.108Z,9.04
2022-11-13T09:35:07.172Z,9.24
2022-11-13T09:37:56.134Z,9.60
2022-11-13T09:40:59.749Z,9.91
2022-11-13T09:44:10.767Z,9.85
2022-11-13T09:47:31.210Z,9.82
2022-11-13T09:50:19.563Z,10.02
2022-11-13T09:53:12.390Z,10.15
2022-11-13T09:56:06.733Z,10.45
2022-11-13T09:59:46.574Z,11.09
2022-11-13T10:03:12.322Z,11.46
2022-11-13T10:06:25.906Z,11.55
2022-11-13T10:09:27.090Z,11.57
2022-11-13T10:12:26.409Z,11.65
2022-11-13T10:15:21.125Z,11.66
2022-11-13T10:18:36.500Z,11.60
2022-11-13T10:21:47.595Z,11.83
2022-11-13T10:24:48.275Z,11.69
2022-11-13T10:27:37.539Z,11.90
2022-11-13T10:30:27.877Z,12.38
2022-11-13T10:33:21.446Z,12.24
2022-11-13T10:36:59.646Z,12.29
2022-11-13T10:39:47.320Z,13.06
2022-11-13T10:43:04.907Z,13.27
2022-11-13T10:46:11.078Z,13.91
2022-11-13T10:49:18.459Z,14.01
2022-11-13T10:52:11.281Z,13.95
2022-11-13T10:55:36.131Z,13.35
2022-11-13T10:58:25.089Z,12.88
2022-11-13T11:01:24.470Z,12.46
2022-11-13T11:04:28.609Z,12.20
2022-11-13T11:07:29.373Z,12.10
2022-11-13T11:11:04.179Z,11.90
2022-11-13T11:13:59.733Z,11.82
2022-11-13T11:16:52.582Z,11.76
2022-11-13T11:19:42.142Z,11.79
2022-11-13T11:22:41.535Z,11.76
2022-11-13T11:26:19.535Z,11.80
2022-11-13T11:29:24.617Z,11.82
2022-11-13T11:32:25.954Z,11.82
2022-11-13T11:36:15.698Z,11.73
2022-11-13T11:39:35.695Z,11.79
2022-11-13T11:46:11.911Z,11.55
2022-11-13T11:49:12.707Z,11.66
2022-11-13T11:52:23.527Z,11.51
2022-11-13T11:56:06.800Z,11.60
2022-11-13T11:59:18.978Z,11.60
2022-11-13T12:02:26.216Z,11.51
2022-11-13T12:05:38.012Z,11.60
2022-11-13T12:09:33.606Z,11.69
2022-11-13T12:13:07.452Z,11.88
2022-11-13T12:16:24.624Z,12.04
2022-11-13T12:23:19.186Z,11.84
2022-11-13T12:27:01.903Z,11.79
2022-11-13T12:30:27.758Z,11.93
2022-11-13T12:36:52.656Z,11.91
2022-11-13T12:40:00.713Z,11.73
2022-11-13T12:43:21.865Z,11.79
2022-11-13T12:46:14.332Z,11.78
2022-11-13T12:49:09.406Z,11.58
2022-11-13T12:52:08.125Z,11.69
2022-11-13T12:55:11.459Z,11.72
2022-11-13T12:58:33.083Z,12.00
2022-11-13T13:01:37.408Z,12.01
2022-11-13T13:05:01.668Z,11.78
2022-11-13T13:08:18.996Z,11.41
2022-11-13T13:15:19.126Z,11.00
2022-11-13T13:18:28.540Z,11.06
2022-11-13T13:21:26.100Z,11.08
2022-11-13T13:24:44.005Z,11.09
2022-11-13T13:27:39.085Z,11.10
2022-11-13T13:30:34.945Z,10.92
2022-11-13T13:34:09.583Z,11.08
2022-11-13T13:37:19.564Z,10.60
2022-11-13T13:40:34.452Z,10.54
2022-11-13T13:44:10.649Z,10.52
2022-11-13T13:47:03.865Z,10.49
2022-11-13T13:49:51.910Z,10.53
2022-11-13T13:52:43.674Z,10.61
2022-11-13T13:55:48.527Z,10.61
2022-11-13T13:58:41.769Z,10.38
2022-11-13T14:01:44.397Z,10.48
2022-11-13T14:04:49.089Z,10.55
2022-11-13T14:07:41.605Z,10.59
2022-11-13T14:10:39.363Z,10.46
2022-11-13T14:13:47.716Z,10.40
2022-11-13T14:16:39.351Z,10.54
2022-11-13T14:19:28.033Z,10.53
2022-11-13T14:22:20.495Z,10.58
2022-11-13T14:25:24.147Z,10.64
2022-11-13T14:28:21.640Z,10.72
2022-11-13T14:31:19.651Z,10.63
2022-11-13T14:34:23.566Z,10.44
2022-11-13T14:37:30.418Z,10.44
2022-11-13T14:40:38.596Z,10.53
2022-11-13T14:43:33.593Z,10.56
2022-11-13T14:46:32.892Z,10.55
2022-11-13T14:49:41.311Z,10.48
2022-11-13T14:52:31.742Z,10.46
2022-11-13T14:55:44.072Z,10.46
2022-11-13T14:58:42.155Z,10.39
2022-11-13T15:01:31.234Z,10.21
2022-11-13T15:04:20.265Z,10.34
2022-11-13T15:07:38.274Z,10.33
2022-11-13T15:10:36.542Z,10.10
2022-11-13T15:13:32.208Z,10.21
2022-11-13T15:16:32.139Z,10.12
2022-11-13T15:19:46.768Z,10.02
2022-11-13T15:22:35.903Z,10.11
2022-11-13T15:25:26.165Z,9.97
2022-11-13T15:28:16.336Z,10.03
2022-11-13T15:31:07.428Z,9.96
2022-11-13T15:33:54.748Z,9.96
2022-11-13T15:36:48.308Z,9.89
2022-11-13T15:39:43.990Z,9.93
2022-11-13T15:42:37.613Z,9.85
2022-11-13T15:45:28.408Z,10.00
2022-11-13T15:48:18.500Z,9.98
2022-11-13T15:51:08.339Z,10.12
2022-11-13T15:54:18.170Z,10.11
2022-11-13T15:57:06.951Z,10.06
2022-11-13T15:59:56.718Z,10.04
2022-11-13T16:02:57.757Z,9.99
2022-11-13T16:05:44.769Z,10.11
2022-11-13T16:08:37.725Z,10.02
2022-11-13T16:11:24.717Z,10.04
2022-11-13T16:14:21.902Z,10.13
2022-11-13T16:17:23.761Z,10.21
2022-11-13T16:20:17.487Z,10.20
2022-11-13T16:23:09.711Z,10.16
2022-11-13T16:25:59.593Z,10.17
2022-11-13T16:29:12.313Z,9.96
2022-11-13T16:31:57.948Z,10.09
2022-11-13T16:34:55.987Z,9.99
2022-11-13T16:37:45.184Z,9.93
2022-11-13T16:40:35.661Z,9.92
2022-11-13T16:43:25.130Z,9.80
2022-11-13T16:46:32.997Z,9.76
2022-11-13T16:49:29.022Z,9.94
2022-11-13T16:52:18.396Z,9.93
2022-11-13T16:55:06.904Z,9.92
2022-11-13T16:57:59.408Z,9.84
2022-11-13T17:00:59.860Z,9.87
2022-11-13T17:03:48.176Z,9.56
2022-11-13T17:06:47.213Z,9.72
2022-11-13T17:09:36.345Z,9.74
2022-11-13T17:12:25.565Z,9.69
2022-11-13T17:15:22.376Z,9.52
2022-11-13T17:18:12.610Z,9.49
2022-11-13T17:21:02.087Z,9.43
2022-11-13T17:23:52.960Z,9.05
2022-11-13T17:26:39.174Z,9.56
2022-11-13T17:29:30.385Z,9.43
2022-11-13T17:32:19.905Z,9.46
2022-11-13T17:35:15.137Z,9.13
2022-11-13T17:38:11.441Z,9.25
2022-11-13T17:41:16.506Z,9.29
2022-11-13T17:44:09.008Z,9.35
2022-11-13T17:47:01.102Z,9.34
2022-11-13T17:49:51.592Z,9.25
2022-11-13T17:52:46.166Z,9.34
2022-11-13T17:55:32.975Z,9.33
2022-11-13T17:58:22.436Z,9.31
2022-11-13T18:01:15.001Z,9.31
2022-11-13T18:04:04.896Z,9.25
2022-11-13T18:06:51.827Z,9.17
2022-11-13T18:09:44.684Z,9.08
2022-11-13T18:12:34.099Z,9.19
2022-11-13T18:15:29.665Z,9.27
2022-11-13T18:18:24.117Z,9.36
2022-11-13T18:21:25.766Z,9.17
2022-11-13T18:24:18.640Z,9.16
2022-11-13T18:27:14.228Z,9.05
2022-11-13T18:30:05.606Z,9.23
2022-11-13T18:32:55.037Z,9.33
2022-11-13T18:35:50.548Z,9.21
2022-11-13T18:38:46.506Z,9.26
2022-11-13T18:41:36.221Z,9.31
2022-11-13T18:44:28.269Z,9.31
2022-11-13T18:47:18.412Z,9.18
2022-11-13T18:50:10.262Z,9.13
2022-11-13T18:52:57.326Z,9.20
2022-11-13T18:55:48.524Z,9.20
2022-11-13T18:58:44.131Z,9.31
2022-11-13T19:01:33.864Z,9.15
2022-11-13T19:04:23.363Z,9.10
2022-11-13T19:07:19.953Z,9.14
2022-11-13T19:10:09.004Z,9.18
2022-11-13T19:13:01.563Z,9.13
2022-11-13T19:15:50.280Z,9.13
2022-11-13T19:18:42.020Z,9.11
2022-11-13T19:21:35.061Z,9.10
2022-11-13T19:24:25.156Z,8.99
2022-11-13T19:27:12.478Z,9.19
2022-11-13T19:30:01.664Z,9.17
2022-11-13T19:32:49.986Z,9.15
2022-11-13T19:35:56.282Z,9.24
2022-11-13T19:38:45.419Z,9.27
2022-11-13T19:41:35.726Z,9.34
2022-11-13T19:44:24.503Z,9.37
2022-11-13T19:47:16.031Z,9.31
2022-11-13T19:50:04.958Z,9.25
2022-11-13T19:52:52.715Z,9.30
2022-11-13T19:55:48.656Z,9.26
2022-11-13T19:58:38.706Z,9.26
2022-11-13T20:01:38.072Z,9.24
2022-11-13T20:04:33.523Z,9.28
2022-11-13T20:07:29.507Z,9.28
2022-11-13T20:10:17.409Z,9.24
2022-11-13T20:13:03.921Z,9.17
2022-11-13T20:15:59.777Z,9.10
2022-11-13T20:18:49.018Z,9.06
2022-11-13T20:21:43.593Z,9.01
2022-11-13T20:24:32.238Z,8.95
2022-11-13T20:27:37.471Z,8.97
2022-11-13T20:30:27.022Z,9.02
2022-11-13T20:33:22.139Z,9.04
2022-11-13T20:36:13.840Z,9.16
2022-11-13T20:39:08.138Z,9.10
2022-11-13T20:41:58.642Z,8.96
2022-11-13T20:44:58.516Z,9.06
2022-11-13T20:47:51.371Z,9.10
2022-11-13T20:50:42.061Z,9.17
2022-11-13T20:53:44.592Z,8.95
2022-11-13T20:56:34.239Z,9.06
2022-11-13T20:59:23.543Z,9.04
2022-11-13T21:02:22.374Z,9.11
2022-11-13T21:05:09.395Z,9.14
2022-11-13T21:08:00.034Z,9.19
2022-11-13T21:10:46.888Z,9.02
2022-11-13T21:13:44.061Z,9.02
2022-11-13T21:16:33.039Z,9.00
2022-11-13T21:19:20.245Z,9.05
2022-11-13T21:22:09.320Z,9.06
2022-11-13T21:24:59.190Z,9.05
2022-11-13T21:27:48.806Z,9.04
2022-11-13T21:30:37.763Z,8.91
2022-11-13T21:33:25.135Z,8.83
2022-11-13T21:36:21.186Z,9.06
2022-11-13T21:39:17.833Z,9.12
2022-11-13T21:42:06.618Z,8.97
2022-11-13T21:45:05.862Z,8.98
2022-11-13T21:48:01.366Z,9.08
2022-11-13T21:50:49.411Z,9.13
2022-11-13T21:53:52.885Z,9.12
2022-11-13T21:56:42.686Z,9.19
2022-11-13T21:59:31.752Z,8.85
2022-11-13T22:02:27.802Z,8.98
2022-11-13T22:05:23.495Z,8.99
2022-11-13T22:08:12.810Z,8.87
2022-11-13T22:11:01.424Z,8.88
2022-11-13T22:13:52.198Z,8.92
2022-11-13T22:16:53.281Z,9.04
2022-11-13T22:19:49.981Z,9.03
2022-11-13T22:22:39.215Z,8.85
2022-11-13T22:25:34.234Z,9.04
2022-11-13T22:28:24.330Z,9.12
2022-11-13T22:31:36.734Z,9.00
2022-11-13T22:34:28.686Z,9.04
2022-11-13T22:37:23.614Z,8.96
2022-11-13T22:40:12.638Z,8.88
2022-11-13T22:43:00.803Z,8.94
2022-11-13T22:45:47.599Z,8.93
2022-11-13T22:48:48.827Z,8.95
2022-11-13T22:51:44.531Z,9.00
2022-11-13T22:54:37.419Z,8.95
2022-11-13T22:57:23.907Z,9.02
2022-11-13T23:00:16.812Z,9.03
2022-11-13T23:03:14.391Z,9.04
2022-11-13T23:06:07.833Z,9.10
2022-11-13T23:09:00.915Z,9.12
2022-11-13T23:12:01.097Z,9.12
2022-11-13T23:14:50.813Z,8.98
2022-11-13T23:17:42.056Z,8.92
2022-11-13T23:20:44.819Z,8.87
2022-11-13T23:23:42.301Z,8.94
2022-11-13T23:26:37.014Z,8.48
2022-11-13T23:29:33.892Z,8.86
2022-11-13T23:32:28.474Z,9.01
2022-11-13T23:35:18.022Z,9.08
2022-11-13T23:38:14.965Z,9.00
2022-11-13T23:41:10.672Z,9.03
2022-11-13T23:44:12.301Z,9.03
2022-11-13T23:47:08.044Z,9.01
2022-11-13T23:50:01.293Z,8.99
2022-11-13T23:52:49.765Z,8.96
2022-11-13T23:55:39.363Z,8.90
2022-11-13T23:58:35.699Z,9.10
